createdAt,value
2022-08-23T00:00:07.649Z,101274.84
2022-08-23T00:02:42.588Z,101273.94
2022-08-23T00:05:11.832Z,101268.97
2022-08-23T00:07:41.684Z,101267.28
2022-08-23T00:10:14.685Z,101263.06
2022-08-23T00:12:45.283Z,101270.84
2022-08-23T00:15:16.506Z,101265.94
2022-08-23T00:17:44.829Z,101257.41
2022-08-23T00:20:15.488Z,101259.53
2022-08-23T00:22:43.842Z,101252.34
2022-08-23T00:25:15.366Z,101250.56
2022-08-23T00:27:45.170Z,101251.75
2022-08-23T00:30:14.682Z,101259.59
2022-08-23T00:32:43.868Z,101254.78
2022-08-23T00:35:26.244Z,101259.13
2022-08-23T00:38:32.097Z,101248.22
2022-08-23T00:40:46.219Z,101255.28
2022-08-23T00:43:35.570Z,101251.25
2022-08-23T00:46:32.010Z,101249.56
2022-08-23T00:49:02.354Z,101255.88
2022-08-23T00:51:41.327Z,101242.84
2022-08-23T00:54:21.936Z,101249.41
2022-08-23T00:56:51.658Z,101254.78
2022-08-23T00:59:21.291Z,101252.69
2022-08-23T01:01:49.923Z,101258.47
2022-08-23T01:04:19.010Z,101251.91
2022-08-23T01:06:52.164Z,101250.09
2022-08-23T01:09:22.548Z,101254.59
2022-08-23T01:11:54.847Z,101255.16
2022-08-23T01:14:30.264Z,101254.03
2022-08-23T01:17:04.153Z,101261.78
2022-08-23T01:19:37.409Z,101254.47
2022-08-23T01:22:12.856Z,101258.81
2022-08-23T01:25:06.892Z,101260.69
2022-08-23T01:27:32.154Z,101265.72
2022-08-23T01:30:01.326Z,101263.91
2022-08-23T01:32:29.953Z,101267.53
2022-08-23T01:34:58.035Z,101261.69
2022-08-23T01:37:26.256Z,101264.59
2022-08-23T01:39:55.728Z,101265.19
2022-08-23T01:42:23.930Z,101257.06
2022-08-23T01:44:51.973Z,101255.81
2022-08-23T01:47:20.038Z,101262.25
2022-08-23T01:49:48.028Z,101264.06
2022-08-23T01:52:17.294Z,101266.72
2022-08-23T01:54:45.325Z,101266.88
2022-08-23T01:57:14.880Z,101265.31
2022-08-23T01:59:45.116Z,101268.84
2022-08-23T02:02:13.352Z,101274.44
2022-08-23T02:04:41.433Z,101272.63
2022-08-23T02:07:09.580Z,101275.16
2022-08-23T02:09:37.583Z,101271.09
2022-08-23T02:12:06.727Z,101267.31
2022-08-23T02:14:37.342Z,101276.13
2022-08-23T02:17:09.324Z,101264.22
2022-08-23T02:19:39.598Z,101263.63
2022-08-23T02:22:09.486Z,101268.28
2022-08-23T02:24:41.768Z,101256.78
2022-08-23T02:27:10.197Z,101260.69
2022-08-23T02:29:40.269Z,101263.50
2022-08-23T02:32:09.692Z,101263.50
2022-08-23T02:34:38.395Z,101263.34
2022-08-23T02:37:07.698Z,101265.19
2022-08-23T02:39:38.737Z,101260.97
2022-08-23T02:42:08.104Z,101265.47
2022-08-23T02:44:41.317Z,101262.22
2022-08-23T02:47:09.305Z,101263.50
2022-08-23T02:49:37.959Z,101262.94
2022-08-23T02:52:07.621Z,101267.13
2022-08-23T02:54:37.566Z,101269.25
2022-08-23T02:57:06.319Z,101261.41
2022-08-23T02:59:35.331Z,101256.78
2022-08-23T03:02:04.895Z,101264.31
2022-08-23T03:04:33.007Z,101262.66
2022-08-23T03:07:01.210Z,101265.31
2022-08-23T03:09:29.444Z,101267.09
2022-08-23T03:12:00.413Z,101265.28
2022-08-23T03:14:28.635Z,101266.25
2022-08-23T03:16:58.290Z,101262.44
2022-08-23T03:19:27.958Z,101259.09
2022-08-23T03:21:56.163Z,101263.69
2022-08-23T03:24:24.312Z,101263.13
2022-08-23T03:26:52.686Z,101271.13
2022-08-23T03:29:20.835Z,101266.75
2022-08-23T03:31:48.901Z,101267.72
2022-08-23T03:34:16.985Z,101267.88
2022-08-23T03:36:46.430Z,101267.03
2022-08-23T03:39:14.594Z,101271.78
2022-08-23T03:41:42.717Z,101266.31
2022-08-23T03:44:11.062Z,101275.81
2022-08-23T03:46:39.203Z,101280.69
2022-08-23T03:49:07.442Z,101270.94
2022-08-23T03:51:36.358Z,101270.78
2022-08-23T03:54:08.118Z,101279.69
2022-08-23T03:56:38.873Z,101276.91
2022-08-23T03:59:11.138Z,101285.03
2022-08-23T04:01:39.299Z,101292.03
2022-08-23T04:04:07.581Z,101292.97
2022-08-23T04:06:35.715Z,101295.69
2022-08-23T04:09:05.685Z,101291.38
2022-08-23T04:11:33.880Z,101297.38
2022-08-23T04:14:01.901Z,101295.53
2022-08-23T04:16:33.503Z,101294.19
2022-08-23T04:19:01.608Z,101295.50
2022-08-23T04:21:29.786Z,101297.66
2022-08-23T04:23:58.334Z,101299.56
2022-08-23T04:26:30.291Z,101298.16
2022-08-23T04:28:58.486Z,101301.28
2022-08-23T04:31:27.532Z,101297.34
2022-08-23T04:33:57.972Z,101296.88
2022-08-23T04:36:34.603Z,101306.28
2022-08-23T04:39:02.930Z,101311.19
2022-08-23T04:41:50.017Z,101308.78
2022-08-23T04:44:18.570Z,101308.22
2022-08-23T04:46:49.754Z,101313.53
2022-08-23T04:49:18.547Z,101324.81
2022-08-23T04:51:53.880Z,101337.50
2022-08-23T04:54:23.351Z,101332.66
2022-08-23T04:56:52.740Z,101330.59
2022-08-23T04:59:20.897Z,101338.78
2022-08-23T05:01:48.916Z,101335.63
2022-08-23T05:04:16.990Z,101337.00
2022-08-23T05:06:45.720Z,101338.94
2022-08-23T05:09:20.352Z,101333.06
2022-08-23T05:11:49.415Z,101340.78
2022-08-23T05:14:19.266Z,101347.16
2022-08-23T05:16:54.339Z,101344.84
2022-08-23T05:19:22.587Z,101344.25
2022-08-23T05:21:53.953Z,101349.25
2022-08-23T05:24:25.024Z,101352.41
2022-08-23T05:26:53.111Z,101356.63
2022-08-23T05:29:22.645Z,101355.66
2022-08-23T05:31:50.766Z,101362.06
2022-08-23T05:34:22.643Z,101361.94
2022-08-23T05:36:55.748Z,101372.53
2022-08-23T05:39:32.952Z,101358.50
2022-08-23T05:42:05.191Z,101367.06
2022-08-23T05:44:36.571Z,101369.31
2022-08-23T05:47:11.100Z,101368.91
2022-08-23T05:49:40.263Z,101363.66
2022-08-23T05:52:10.741Z,101367.75
2022-08-23T05:54:39.178Z,101370.72
2022-08-23T05:57:07.643Z,101361.53
2022-08-23T05:59:37.075Z,101363.34
2022-08-23T06:02:06.127Z,101360.84
2022-08-23T06:04:34.246Z,101368.75
2022-08-23T06:07:02.400Z,101370.22
2022-08-23T06:09:30.458Z,101372.47
2022-08-23T06:11:59.443Z,101371.22
2022-08-23T06:14:27.864Z,101382.59
2022-08-23T06:16:57.352Z,101379.94
2022-08-23T06:19:25.953Z,101375.63
2022-08-23T06:21:54.675Z,101375.34
2022-08-23T06:24:23.870Z,101381.69
2022-08-23T06:26:51.979Z,101384.88
2022-08-23T06:29:21.382Z,101387.16
2022-08-23T06:31:53.169Z,101386.75
2022-08-23T06:34:25.487Z,101389.50
2022-08-23T06:36:56.707Z,101385.97
2022-08-23T06:39:26.710Z,101382.50
2022-08-23T06:42:00.782Z,101379.25
2022-08-23T06:44:30.238Z,101375.91
2022-08-23T06:47:00.168Z,101376.94
2022-08-23T06:49:29.884Z,101379.47
2022-08-23T06:52:01.485Z,101371.47
2022-08-23T06:54:32.609Z,101380.75
2022-08-23T06:57:01.382Z,101379.72
2022-08-23T06:59:29.620Z,101381.88
2022-08-23T07:02:00.058Z,101380.31
2022-08-23T07:04:32.537Z,101376.13
2022-08-23T07:07:02.472Z,101373.00
2022-08-23T07:09:31.522Z,101373.91
2022-08-23T07:12:00.299Z,101374.66
2022-08-23T07:14:29.305Z,101384.72
2022-08-23T07:17:00.606Z,101386.63
2022-08-23T07:19:32.141Z,101381.81
2022-08-23T07:22:01.065Z,101379.44
2022-08-23T07:24:33.524Z,101381.13
2022-08-23T07:27:06.767Z,101386.66
2022-08-23T07:29:34.664Z,101392.00
2022-08-23T07:32:02.998Z,101389.50
2022-08-23T07:34:33.185Z,101391.16
2022-08-23T07:37:01.587Z,101387.75
2022-08-23T07:39:31.689Z,101391.75
2022-08-23T07:42:00.775Z,101388.13
2022-08-23T07:44:30.009Z,101389.94
2022-08-23T07:46:58.977Z,101395.19
2022-08-23T07:49:29.323Z,101393.69
2022-08-23T07:51:59.972Z,101398.53
2022-08-23T07:54:29.067Z,101397.84
2022-08-23T07:56:57.152Z,101401.06
2022-08-23T07:59:25.218Z,101399.31
2022-08-23T08:01:53.329Z,101401.81
2022-08-23T08:04:21.405Z,101407.53
2022-08-23T08:07:10.370Z,101404.13
2022-08-23T08:09:40.575Z,101408.53
2022-08-23T08:12:08.955Z,101407.03
2022-08-23T08:14:37.365Z,101401.72
2022-08-23T08:17:06.952Z,101406.31
2022-08-23T08:19:35.020Z,101409.59
2022-08-23T08:22:03.085Z,101409.75
2022-08-23T08:24:31.234Z,101418.44
2022-08-23T08:27:00.731Z,101407.50
2022-08-23T08:29:28.862Z,101414.47
2022-08-23T08:31:58.459Z,101421.16
2022-08-23T08:34:26.477Z,101415.47
2022-08-23T08:36:58.374Z,101422.81
2022-08-23T08:39:33.747Z,101410.66
2022-08-23T08:42:29.474Z,101411.13
2022-08-23T08:45:00.008Z,101417.28
2022-08-23T08:47:35.034Z,101411.53
2022-08-23T08:50:10.787Z,101415.94
2022-08-23T08:52:42.061Z,101410.41
2022-08-23T08:55:15.167Z,101413.06
2022-08-23T08:57:47.866Z,101417.47
2022-08-23T09:00:20.233Z,101412.69
2022-08-23T09:02:48.521Z,101417.25
2022-08-23T09:05:22.009Z,101423.06
2022-08-23T09:08:02.968Z,101416.97
2022-08-23T09:10:48.228Z,101417.34
2022-08-23T09:13:48.020Z,101411.66
2022-08-23T09:16:30.158Z,101412.31
2022-08-23T09:18:58.736Z,101417.09
2022-08-23T09:21:28.533Z,101417.22
2022-08-23T09:24:00.321Z,101414.25
2022-08-23T09:26:31.854Z,101419.84
2022-08-23T09:29:04.349Z,101409.66
2022-08-23T09:31:41.407Z,101412.34
2022-08-23T09:34:09.780Z,101407.59
2022-08-23T09:36:39.737Z,101406.03
2022-08-23T09:39:10.584Z,101401.59
2022-08-23T09:41:41.469Z,101408.34
2022-08-23T09:44:13.521Z,101408.81
2022-08-23T09:46:43.661Z,101405.47
2022-08-23T09:49:26.122Z,101408.81
2022-08-23T09:51:56.494Z,101405.47
2022-08-23T09:54:30.313Z,101397.00
2022-08-23T09:57:02.648Z,101405.72
2022-08-23T09:59:41.768Z,101403.50
2022-08-23T10:02:17.118Z,101405.31
2022-08-23T10:04:56.082Z,101404.75
2022-08-23T10:07:31.224Z,101411.81
2022-08-23T10:10:26.531Z,101406.03
2022-08-23T10:12:56.569Z,101406.84
2022-08-23T10:15:39.002Z,101403.00
2022-08-23T10:18:16.358Z,101396.34
2022-08-23T10:20:53.498Z,101393.41
2022-08-23T10:23:33.485Z,101401.25
2022-08-23T10:26:02.485Z,101393.41
2022-08-23T10:28:57.586Z,101391.41
2022-08-23T10:31:36.644Z,101389.25
2022-08-23T10:34:20.469Z,101380.03
2022-08-23T10:37:01.739Z,101385.31
2022-08-23T10:39:31.646Z,101382.09
2022-08-23T10:42:05.750Z,101389.22
2022-08-23T10:44:41.517Z,101387.31
2022-08-23T10:47:19.784Z,101382.69
2022-08-23T10:49:52.144Z,101381.88
2022-08-23T10:52:22.134Z,101381.75
2022-08-23T10:55:06.373Z,101378.66
2022-08-23T10:57:38.611Z,101378.81
2022-08-23T11:00:09.852Z,101368.72
2022-08-23T11:02:49.712Z,101372.03
2022-08-23T11:05:25.688Z,101368.31
2022-08-23T11:08:01.134Z,101371.59
2022-08-23T11:10:34.924Z,101372.41
2022-08-23T11:13:08.346Z,101374.97
2022-08-23T11:15:44.924Z,101370.19
2022-08-23T11:18:42.054Z,101368.03
2022-08-23T11:21:33.669Z,101378.28
2022-08-23T11:24:32.356Z,101378.72
2022-08-23T11:27:07.515Z,101380.19
2022-08-23T11:29:38.826Z,101385.59
2022-08-23T11:32:34.469Z,101380.75
2022-08-23T11:35:35.533Z,101376.56
2022-08-23T11:38:05.662Z,101377.00
2022-08-23T11:41:03.771Z,101380.78
2022-08-23T11:43:39.046Z,101382.91
2022-08-23T11:46:26.770Z,101380.88
2022-08-23T11:49:28.890Z,101382.38
2022-08-23T11:52:10.626Z,101373.00
2022-08-23T11:54:57.353Z,101379.81
2022-08-23T11:57:36.843Z,101380.69
2022-08-23T12:00:26.878Z,101387.25
2022-08-23T12:03:03.247Z,101374.34
2022-08-23T12:06:04.152Z,101380.88
2022-08-23T12:08:56.012Z,101370.31
2022-08-23T12:11:26.010Z,101368.72
2022-08-23T12:14:02.732Z,101373.56
2022-08-23T12:16:38.505Z,101375.41
2022-08-23T12:19:29.457Z,101365.78
2022-08-23T12:21:58.126Z,101373.63
2022-08-23T12:24:32.581Z,101371.63
2022-08-23T12:27:19.108Z,101363.25
2022-08-23T12:30:00.484Z,101374.34
2022-08-23T12:32:38.948Z,101364.56
2022-08-23T12:35:30.262Z,101372.59
2022-08-23T12:38:08.694Z,101380.03
2022-08-23T12:40:42.595Z,101373.84
2022-08-23T12:43:22.780Z,101379.03
2022-08-23T12:45:54.079Z,101383.59
2022-08-23T12:48:25.816Z,101382.50
2022-08-23T12:50:57.176Z,101375.00
2022-08-23T12:53:30.715Z,101384.34
2022-08-23T12:56:03.752Z,101380.47
2022-08-23T12:58:38.780Z,101386.69
2022-08-23T13:01:09.719Z,101387.69
2022-08-23T13:03:43.791Z,101386.09
2022-08-23T13:06:15.526Z,101378.50
2022-08-23T13:08:47.050Z,101379.91
2022-08-23T13:11:19.390Z,101382.19
2022-08-23T13:13:47.616Z,101379.69
2022-08-23T13:16:28.156Z,101381.63
2022-08-23T13:19:15.735Z,101380.59
2022-08-23T13:21:44.317Z,101378.78
2022-08-23T13:24:38.750Z,101377.53
2022-08-23T13:27:22.614Z,101385.06
2022-08-23T13:29:53.259Z,101389.28
2022-08-23T13:32:38.316Z,101389.78
2022-08-23T13:35:34.168Z,101385.28
2022-08-23T13:38:14.714Z,101381.16
2022-08-23T13:40:55.960Z,101380.44
2022-08-23T13:43:29.533Z,101380.00
2022-08-23T13:46:00.170Z,101388.69
2022-08-23T13:48:31.651Z,101379.50
2022-08-23T13:51:29.997Z,101385.66
2022-08-23T13:54:00.587Z,101386.94
2022-08-23T13:56:31.103Z,101389.13
2022-08-23T13:59:01.593Z,101378.34
2022-08-23T14:01:30.593Z,101378.38
2022-08-23T14:03:58.683Z,101376.69
2022-08-23T14:06:28.198Z,101381.63
2022-08-23T14:08:56.324Z,101378.22
2022-08-23T14:11:24.491Z,101386.03
2022-08-23T14:13:53.143Z,101379.03
2022-08-23T14:16:34.292Z,101378.69
2022-08-23T14:19:55.201Z,101387.19
2022-08-23T14:21:53.305Z,101387.47
2022-08-23T14:24:22.334Z,101374.19
2022-08-23T14:26:52.511Z,101372.72
2022-08-23T14:29:22.619Z,101378.72
2022-08-23T14:31:51.449Z,101371.59
2022-08-23T14:34:21.026Z,101377.28
2022-08-23T14:39:39.087Z,101371.00
2022-08-23T14:42:07.802Z,101365.13
2022-08-23T14:44:36.571Z,101372.75
2022-08-23T14:47:05.788Z,101363.66
2022-08-23T14:49:34.081Z,101361.47
2022-08-23T14:52:02.078Z,101373.09
2022-08-23T14:54:30.380Z,101369.38
2022-08-23T14:56:59.995Z,101364.31
2022-08-23T14:59:28.151Z,101358.28
2022-08-23T15:01:57.486Z,101355.56
2022-08-23T15:04:34.105Z,101354.03
2022-08-23T15:07:19.306Z,101346.94
2022-08-23T15:09:48.950Z,101357.66
2022-08-23T15:15:09.089Z,101357.00
2022-08-23T15:17:47.495Z,101348.81
2022-08-23T15:20:16.466Z,101355.56
2022-08-23T15:22:46.540Z,101353.03
2022-08-23T15:25:25.340Z,101349.72
2022-08-23T15:27:54.943Z,101353.97
2022-08-23T15:30:24.085Z,101349.69
2022-08-23T15:32:56.628Z,101353.69
2022-08-23T15:35:26.220Z,101346.47
2022-08-23T15:37:57.337Z,101348.09
2022-08-23T15:40:26.087Z,101344.53
2022-08-23T15:42:55.810Z,101348.28
2022-08-23T15:45:24.058Z,101344.03
2022-08-23T15:47:53.810Z,101345.59
2022-08-23T15:50:24.660Z,101350.56
2022-08-23T15:52:52.883Z,101352.09
2022-08-23T15:55:21.676Z,101345.16
2022-08-23T15:57:51.768Z,101345.88
2022-08-23T16:00:24.273Z,101350.63
2022-08-23T16:03:18.315Z,101344.44
2022-08-23T16:05:43.511Z,101350.56
2022-08-23T16:08:18.575Z,101353.19
2022-08-23T16:10:47.122Z,101344.88
2022-08-23T16:13:15.302Z,101346.88
2022-08-23T16:15:45.234Z,101345.31
2022-08-23T16:18:13.967Z,101339.19
2022-08-23T16:20:42.087Z,101348.53
2022-08-23T16:23:10.681Z,101355.09
2022-08-23T16:25:38.866Z,101353.25
2022-08-23T16:28:08.038Z,101354.78
2022-08-23T16:30:36.383Z,101353.00
2022-08-23T16:33:05.936Z,101349.31
2022-08-23T16:35:34.066Z,101349.94
2022-08-23T16:38:02.314Z,101356.78
2022-08-23T16:40:30.444Z,101355.25
2022-08-23T16:42:58.516Z,101354.91
2022-08-23T16:45:26.632Z,101353.31
2022-08-23T16:47:55.174Z,101358.34
2022-08-23T16:50:24.698Z,101348.81
2022-08-23T16:52:52.907Z,101358.06
2022-08-23T16:55:21.415Z,101352.09
2022-08-23T16:57:49.464Z,101355.28
2022-08-23T17:00:18.341Z,101363.25
2022-08-23T17:02:47.174Z,101355.41
2022-08-23T17:05:19.526Z,101356.69
2022-08-23T17:07:49.294Z,101354.84
2022-08-23T17:10:19.611Z,101360.34
2022-08-23T17:12:50.933Z,101354.97
2022-08-23T17:15:23.388Z,101362.31
2022-08-23T17:17:52.640Z,101364.34
2022-08-23T17:20:23.631Z,101360.00
2022-08-23T17:22:53.537Z,101355.00
2022-08-23T17:25:21.821Z,101358.84
2022-08-23T17:27:51.053Z,101355.09
2022-08-23T17:30:22.089Z,101358.88
2022-08-23T17:32:50.521Z,101357.88
2022-08-23T17:35:23.914Z,101362.44
2022-08-23T17:37:53.781Z,101364.34
2022-08-23T17:40:25.812Z,101375.59
2022-08-23T17:42:54.165Z,101374.75
2022-08-23T17:45:22.373Z,101370.19
2022-08-23T17:47:50.439Z,101370.63
2022-08-23T17:50:19.782Z,101374.16
2022-08-23T17:52:47.832Z,101375.81
2022-08-23T17:55:18.352Z,101378.13
2022-08-23T17:57:47.903Z,101381.63
2022-08-23T18:00:18.016Z,101384.31
2022-08-23T18:02:46.129Z,101389.72
2022-08-23T18:05:14.422Z,101390.75
2022-08-23T18:07:42.691Z,101393.44
2022-08-23T18:10:12.699Z,101391.34
2022-08-23T18:12:42.420Z,101396.09
2022-08-23T18:15:11.729Z,101400.38
2022-08-23T18:17:40.960Z,101400.97
2022-08-23T18:20:11.626Z,101405.06
2022-08-23T18:22:40.241Z,101411.69
2022-08-23T18:25:10.884Z,101407.91
2022-08-23T18:27:56.319Z,101418.38
2022-08-23T18:30:26.656Z,101422.31
2022-08-23T18:32:55.042Z,101424.72
2022-08-23T18:35:25.836Z,101418.00
2022-08-23T18:37:54.482Z,101426.66
2022-08-23T18:40:22.813Z,101432.44
2022-08-23T18:42:51.907Z,101431.94
2022-08-23T18:45:20.766Z,101430.66
2022-08-23T18:47:51.604Z,101435.91
2022-08-23T18:50:19.816Z,101449.09
2022-08-23T18:52:47.866Z,101446.53
2022-08-23T18:55:17.610Z,101445.59
2022-08-23T18:57:45.640Z,101447.97
2022-08-23T19:00:14.432Z,101450.41
2022-08-23T19:02:42.492Z,101447.81
2022-08-23T19:05:11.945Z,101455.75
2022-08-23T19:07:40.102Z,101453.53
2022-08-23T19:10:09.278Z,101467.72
2022-08-23T19:12:37.665Z,101461.88
2022-08-23T19:15:06.923Z,101472.00
2022-08-23T19:17:35.169Z,101465.97
2022-08-23T19:20:03.763Z,101480.16
2022-08-23T19:22:33.210Z,101482.56
2022-08-23T19:25:02.901Z,101482.47
2022-08-23T19:27:31.201Z,101486.28
2022-08-23T19:29:59.309Z,101491.28
2022-08-23T19:32:27.392Z,101493.13
2022-08-23T19:34:55.663Z,101487.81
2022-08-23T19:37:23.799Z,101493.13
2022-08-23T19:39:53.351Z,101493.81
2022-08-23T19:42:21.641Z,101497.41
2022-08-23T19:44:50.143Z,101493.41
2022-08-23T19:47:20.257Z,101506.41
2022-08-23T19:49:49.545Z,101506.81
2022-08-23T19:52:17.967Z,101509.84
2022-08-23T19:54:45.976Z,101513.38
2022-08-23T19:57:15.661Z,101516.13
2022-08-23T19:59:44.017Z,101518.34
2022-08-23T20:02:14.552Z,101518.53
2022-08-23T20:04:42.870Z,101530.66
2022-08-23T20:07:11.176Z,101530.34
2022-08-23T20:09:39.280Z,101530.41
2022-08-23T20:12:07.949Z,101544.69
2022-08-23T20:14:37.569Z,101539.16
2022-08-23T20:17:07.583Z,101540.91
2022-08-23T20:19:36.388Z,101545.91
2022-08-23T20:22:22.890Z,101543.94
2022-08-23T20:24:52.656Z,101551.53
2022-08-23T20:27:24.480Z,101551.38
2022-08-23T20:30:01.494Z,101553.41
2022-08-23T20:32:31.342Z,101550.75
2022-08-23T20:35:00.525Z,101553.13
2022-08-23T20:37:28.944Z,101557.34
2022-08-23T20:39:57.209Z,101553.16
2022-08-23T20:42:25.639Z,101557.50
2022-08-23T20:44:53.921Z,101561.69
2022-08-23T20:47:23.496Z,101558.03
2022-08-23T20:49:52.054Z,101556.19
2022-08-23T20:52:20.151Z,101560.72
2022-08-23T20:54:48.319Z,101562.22
2022-08-23T20:57:16.398Z,101555.66
2022-08-23T20:59:45.209Z,101560.88
2022-08-23T21:02:14.069Z,101562.91
2022-08-23T21:04:43.627Z,101565.59
2022-08-23T21:07:12.113Z,101570.78
2022-08-23T21:09:41.752Z,101567.63
2022-08-23T21:12:09.949Z,101565.94
2022-08-23T21:14:38.075Z,101571.78
2022-08-23T21:17:07.655Z,101569.28
2022-08-23T21:19:35.716Z,101571.59
2022-08-23T21:22:05.562Z,101571.59
2022-08-23T21:24:33.802Z,101564.56
2022-08-23T21:27:09.429Z,101564.34
2022-08-23T21:29:38.654Z,101568.56
2022-08-23T21:32:07.446Z,101572.06
2022-08-23T21:34:35.865Z,101572.88
2022-08-23T21:37:05.639Z,101563.00
2022-08-23T21:39:33.851Z,101569.19
2022-08-23T21:42:03.220Z,101573.06
2022-08-23T21:44:43.734Z,101570.19
2022-08-23T21:47:11.940Z,101571.22
2022-08-23T21:49:40.167Z,101573.38
2022-08-23T21:52:09.645Z,101575.53
2022-08-23T21:54:42.818Z,101575.34
2022-08-23T21:57:11.761Z,101564.13
2022-08-23T21:59:40.132Z,101572.31
2022-08-23T22:02:08.575Z,101576.34
2022-08-23T22:04:36.660Z,101577.84
2022-08-23T22:07:04.864Z,101572.66
2022-08-23T22:09:34.250Z,101566.28
2022-08-23T22:12:02.339Z,101565.09
2022-08-23T22:14:32.110Z,101560.72
2022-08-23T22:17:00.955Z,101567.22
2022-08-23T22:19:29.349Z,101566.03
2022-08-23T22:21:57.661Z,101577.19
2022-08-23T22:24:26.497Z,101564.63
2022-08-23T22:26:56.943Z,101570.91
2022-08-23T22:29:25.531Z,101573.22
2022-08-23T22:31:53.627Z,101575.22
2022-08-23T22:34:22.016Z,101578.38
2022-08-23T22:36:52.109Z,101584.75
2022-08-23T22:39:21.593Z,101575.78
2022-08-23T22:41:50.017Z,101582.31
2022-08-23T22:44:19.725Z,101578.03
2022-08-23T22:46:48.442Z,101580.59
2022-08-23T22:49:16.644Z,101571.38
2022-08-23T22:51:44.691Z,101577.22
2022-08-23T22:54:14.411Z,101579.06
2022-08-23T22:56:45.135Z,101572.28
2022-08-23T22:59:14.097Z,101583.22
2022-08-23T23:01:47.871Z,101578.50
2022-08-23T23:04:18.699Z,101579.97
2022-08-23T23:06:48.699Z,101581.78
2022-08-23T23:09:17.579Z,101577.97
2022-08-23T23:11:46.812Z,101573.16
2022-08-23T23:14:16.205Z,101572.34
2022-08-23T23:16:46.373Z,101580.16
2022-08-23T23:19:31.693Z,101578.03
2022-08-23T23:21:59.921Z,101579.72
2022-08-23T23:24:30.448Z,101576.66
2022-08-23T23:27:02.537Z,101579.94
2022-08-23T23:29:32.128Z,101582.38
2022-08-23T23:32:01.645Z,101581.31
2022-08-23T23:34:31.663Z,101577.41
2022-08-23T23:36:59.950Z,101579.63
2022-08-23T23:39:29.988Z,101583.47
2022-08-23T23:41:58.573Z,101574.59
2022-08-23T23:44:31.098Z,101573.06
2022-08-23T23:47:02.167Z,101577.34
2022-08-23T23:49:33.058Z,101574.09
2022-08-23T23:52:02.962Z,101574.09
2022-08-23T23:54:31.607Z,101569.53
2022-08-23T23:56:59.819Z,101579.84
2022-08-23T23:59:28.337Z,101577.25
